sensor_id;sensor_type;location;lat;lon;timestamp;pressure;altitude;pressure_sealevel;temperature;humidity
8366;BME280;4220;42.502;24.188;2022-09-09T00:00:24;95576.22;;;17.42;99.94
8366;BME280;4220;42.502;24.188;2022-09-09T00:03:00;95574.63;;;17.41;100.00
8366;BME280;4220;42.502;24.188;2022-09-09T00:05:33;95555.88;;;16.98;100.00
8366;BME280;4220;42.502;24.188;2022-09-09T00:08:15;95559.06;;;17.17;100.00
8366;BME280;4220;42.502;24.188;2022-09-09T00:10:48;95565.88;;;17.24;100.00
8366;BME280;4220;42.502;24.188;2022-09-09T00:13:24;95563.25;;;17.29;100.00
8366;BME280;4220;42.502;24.188;2022-09-09T00:15:59;95569.38;;;17.30;100.00
8366;BME280;4220;42.502;24.188;2022-09-09T00:18:30;95572.22;;;17.18;100.00
8366;BME280;4220;42.502;24.188;2022-09-09T00:21:05;95570.09;;;17.20;100.00
8366;BME280;4220;42.502;24.188;2022-09-09T00:23:34;95554.16;;;17.09;100.00
8366;BME280;4220;42.502;24.188;2022-09-09T00:26:08;95569.59;;;17.23;100.00
8366;BME280;4220;42.502;24.188;2022-09-09T00:28:41;95561.50;;;17.18;100.00
8366;BME280;4220;42.502;24.188;2022-09-09T00:31:14;95562.66;;;17.27;100.00
8366;BME280;4220;42.502;24.188;2022-09-09T00:33:42;95564.09;;;17.35;100.00
8366;BME280;4220;42.502;24.188;2022-09-09T00:36:13;95567.78;;;17.29;99.74
8366;BME280;4220;42.502;24.188;2022-09-09T00:38:43;95564.22;;;17.23;100.00
8366;BME280;4220;42.502;24.188;2022-09-09T00:41:17;95556.19;;;17.23;100.00
8366;BME280;4220;42.502;24.188;2022-09-09T00:43:52;95566.75;;;17.35;100.00
8366;BME280;4220;42.502;24.188;2022-09-09T00:46:56;95567.91;;;17.39;100.00
8366;BME280;4220;42.502;24.188;2022-09-09T00:49:35;95570.25;;;17.35;100.00
8366;BME280;4220;42.502;24.188;2022-09-09T00:52:19;95560.50;;;17.24;100.00
8366;BME280;4220;42.502;24.188;2022-09-09T00:54:53;95561.00;;;17.21;100.00
8366;BME280;4220;42.502;24.188;2022-09-09T00:57:26;95556.19;;;17.23;100.00
8366;BME280;4220;42.502;24.188;2022-09-09T00:59:59;95547.47;;;17.11;100.00
8366;BME280;4220;42.502;24.188;2022-09-09T01:02:36;95545.28;;;17.08;100.00
8366;BME280;4220;42.502;24.188;2022-09-09T01:05:12;95545.28;;;17.08;98.92
8366;BME280;4220;42.502;24.188;2022-09-09T01:07:44;95550.81;;;16.42;100.00
8366;BME280;4220;42.502;24.188;2022-09-09T01:10:20;95549.41;;;15.84;100.00
8366;BME280;4220;42.502;24.188;2022-09-09T01:12:51;95545.41;;;15.70;100.00
8366;BME280;4220;42.502;24.188;2022-09-09T01:15:22;95529.44;;;15.75;100.00
8366;BME280;4220;42.502;24.188;2022-09-09T01:17:58;95545.81;;;16.12;100.00
8366;BME280;4220;42.502;24.188;2022-09-09T01:20:31;95542.59;;;16.26;100.00
8366;BME280;4220;42.502;24.188;2022-09-09T01:23:21;95452.25;;;15.62;100.00
8366;BME280;4220;42.502;24.188;2022-09-09T01:26:18;95516.97;;;15.97;100.00
8366;BME280;4220;42.502;24.188;2022-09-09T01:28:47;95523.94;;;16.15;100.00
8366;BME280;4220;42.502;24.188;2022-09-09T01:31:19;95530.56;;;16.29;100.00
8366;BME280;4220;42.502;24.188;2022-09-09T01:33:46;95532.94;;;16.25;100.00
8366;BME280;4220;42.502;24.188;2022-09-09T01:36:21;95529.31;;;15.98;100.00
8366;BME280;4220;42.502;24.188;2022-09-09T01:38:51;95526.56;;;15.77;100.00
8366;BME280;4220;42.502;24.188;2022-09-09T01:41:19;95532.94;;;15.92;100.00
8366;BME280;4220;42.502;24.188;2022-09-09T01:43:47;95539.03;;;16.04;100.00
8366;BME280;4220;42.502;24.188;2022-09-09T01:46:14;95546.81;;;16.06;100.00
8366;BME280;4220;42.502;24.188;2022-09-09T01:48:42;95511.31;;;15.94;100.00
8366;BME280;4220;42.502;24.188;2022-09-09T01:51:10;95543.09;;;16.07;100.00
8366;BME280;4220;42.502;24.188;2022-09-09T01:53:37;95539.84;;;16.21;100.00
8366;BME280;4220;42.502;24.188;2022-09-09T01:56:13;95543.22;;;16.33;100.00
8366;BME280;4220;42.502;24.188;2022-09-09T01:58:54;95542.22;;;16.40;100.00
8366;BME280;4220;42.502;24.188;2022-09-09T02:01:27;95553.28;;;16.43;100.00
8366;BME280;4220;42.502;24.188;2022-09-09T02:04:03;95553.94;;;16.33;100.00
8366;BME280;4220;42.502;24.188;2022-09-09T02:06:34;95556.38;;;16.18;100.00
8366;BME280;4220;42.502;24.188;2022-09-09T02:09:04;95558.66;;;16.26;100.00
8366;BME280;4220;42.502;24.188;2022-09-09T02:11:32;95546.47;;;16.35;100.00
8366;BME280;4220;42.502;24.188;2022-09-09T02:14:04;95554.66;;;16.29;100.00
8366;BME280;4220;42.502;24.188;2022-09-09T02:16:37;95555.72;;;16.28;100.00
8366;BME280;4220;42.502;24.188;2022-09-09T02:19:09;95554.50;;;16.35;100.00
8366;BME280;4220;42.502;24.188;2022-09-09T02:21:39;95512.13;;;16.11;100.00
8366;BME280;4220;42.502;24.188;2022-09-09T02:24:09;95550.94;;;16.30;100.00
8366;BME280;4220;42.502;24.188;2022-09-09T02:26:39;95559.38;;;16.22;100.00
8366;BME280;4220;42.502;24.188;2022-09-09T02:29:14;95556.88;;;16.15;100.00
8366;BME280;4220;42.502;24.188;2022-09-09T02:31:42;95555.88;;;15.88;100.00
8366;BME280;4220;42.502;24.188;2022-09-09T02:34:11;95533.75;;;15.76;100.00
8366;BME280;4220;42.502;24.188;2022-09-09T02:36:41;95537.16;;;15.72;100.00
8366;BME280;4220;42.502;24.188;2022-09-09T02:39:11;95537.97;;;15.72;100.00
8366;BME280;4220;42.502;24.188;2022-09-09T02:41:40;95527.19;;;15.67;100.00
8366;BME280;4220;42.502;24.188;2022-09-09T02:44:11;95524.44;;;15.62;100.00
8366;BME280;4220;42.502;24.188;2022-09-09T02:46:51;95557.84;;;15.76;100.00
8366;BME280;4220;42.502;24.188;2022-09-09T02:49:27;95558.22;;;15.68;100.00
8366;BME280;4220;42.502;24.188;2022-09-09T02:52:01;95550.69;;;15.65;100.00
8366;BME280;4220;42.502;24.188;2022-09-09T02:54:30;95540.66;;;15.72;100.00
8366;BME280;4220;42.502;24.188;2022-09-09T02:57:02;95544.53;;;15.81;100.00
8366;BME280;4220;42.502;24.188;2022-09-09T02:59:32;95542.84;;;15.92;100.00
8366;BME280;4220;42.502;24.188;2022-09-09T03:01:59;95528.66;;;15.91;100.00
8366;BME280;4220;42.502;24.188;2022-09-09T03:04:26;95542.59;;;16.10;100.00
8366;BME280;4220;42.502;24.188;2022-09-09T03:06:53;95549.66;;;16.16;100.00
8366;BME280;4220;42.502;24.188;2022-09-09T03:09:20;95553.78;;;16.23;100.00
8366;BME280;4220;42.502;24.188;2022-09-09T03:11:47;95548.66;;;16.22;100.00
8366;BME280;4220;42.502;24.188;2022-09-09T03:14:14;95504.81;;;15.56;100.00
8366;BME280;4220;42.502;24.188;2022-09-09T03:16:43;95543.81;;;15.41;100.00
8366;BME280;4220;42.502;24.188;2022-09-09T03:19:10;95553.16;;;15.27;100.00
8366;BME280;4220;42.502;24.188;2022-09-09T03:21:36;95549.16;;;15.41;100.00
8366;BME280;4220;42.502;24.188;2022-09-09T03:24:04;95537.06;;;15.50;100.00
8366;BME280;4220;42.502;24.188;2022-09-09T03:26:32;95531.09;;;15.59;100.00
8366;BME280;4220;42.502;24.188;2022-09-09T03:28:58;95535.13;;;15.62;100.00
8366;BME280;4220;42.502;24.188;2022-09-09T03:31:26;95536.59;;;15.69;100.00
8366;BME280;4220;42.502;24.188;2022-09-09T03:33:57;95526.38;;;15.66;100.00
8366;BME280;4220;42.502;24.188;2022-09-09T03:36:24;95530.91;;;15.66;100.00
8366;BME280;4220;42.502;24.188;2022-09-09T03:38:53;95516.97;;;15.64;100.00
8366;BME280;4220;42.502;24.188;2022-09-09T03:41:21;95518.44;;;15.55;100.00
8366;BME280;4220;42.502;24.188;2022-09-09T03:43:49;95498.06;;;15.37;100.00
8366;BME280;4220;42.502;24.188;2022-09-09T03:46:16;95529.78;;;15.45;100.00
8366;BME280;4220;42.502;24.188;2022-09-09T03:48:42;95525.00;;;15.36;100.00
8366;BME280;4220;42.502;24.188;2022-09-09T03:51:11;95536.03;;;15.39;100.00
8366;BME280;4220;42.502;24.188;2022-09-09T03:53:37;95535.47;;;15.37;100.00
8366;BME280;4220;42.502;24.188;2022-09-09T03:56:05;95543.31;;;15.44;100.00
8366;BME280;4220;42.502;24.188;2022-09-09T03:58:32;95539.66;;;15.45;100.00
8366;BME280;4220;42.502;24.188;2022-09-09T04:01:01;95531.31;;;15.58;100.00
8366;BME280;4220;42.502;24.188;2022-09-09T04:03:30;95537.38;;;15.70;100.00
8366;BME280;4220;42.502;24.188;2022-09-09T04:05:58;95542.34;;;15.78;100.00
8366;BME280;4220;42.502;24.188;2022-09-09T04:08:28;95527.19;;;15.67;100.00
8366;BME280;4220;42.502;24.188;2022-09-09T04:10:56;95543.97;;;15.79;100.00
8366;BME280;4220;42.502;24.188;2022-09-09T04:13:24;95544.13;;;15.73;100.00
8366;BME280;4220;42.502;24.188;2022-09-09T04:15:52;95562.00;;;15.55;100.00
8366;BME280;4220;42.502;24.188;2022-09-09T04:18:20;95563.63;;;15.56;100.00
8366;BME280;4220;42.502;24.188;2022-09-09T04:20:47;95525.34;;;15.39;100.00
8366;BME280;4220;42.502;24.188;2022-09-09T04:23:14;95557.34;;;15.62;100.00
8366;BME280;4220;42.502;24.188;2022-09-09T04:25:45;95551.47;;;15.49;100.00
8366;BME280;4220;42.502;24.188;2022-09-09T04:28:12;95547.25;;;15.53;100.00
8366;BME280;4220;42.502;24.188;2022-09-09T04:30:39;95541.13;;;15.69;100.00
8366;BME280;4220;42.502;24.188;2022-09-09T04:33:06;95545.03;;;15.78;100.00
8366;BME280;4220;42.502;24.188;2022-09-09T04:35:33;95548.78;;;15.77;100.00
8366;BME280;4220;42.502;24.188;2022-09-09T04:38:00;95553.69;;;15.85;100.00
8366;BME280;4220;42.502;24.188;2022-09-09T04:40:28;95571.94;;;15.88;100.00
8366;BME280;4220;42.502;24.188;2022-09-09T04:42:59;95556.72;;;15.89;100.00
8366;BME280;4220;42.502;24.188;2022-09-09T04:45:26;95550.22;;;15.85;100.00
8366;BME280;4220;42.502;24.188;2022-09-09T04:47:53;95525.56;;;15.66;100.00
8366;BME280;4220;42.502;24.188;2022-09-09T04:50:20;95574.53;;;15.83;100.00
8366;BME280;4220;42.502;24.188;2022-09-09T04:52:47;95570.56;;;15.86;100.00
8366;BME280;4220;42.502;24.188;2022-09-09T04:55:14;95571.94;;;15.88;100.00
8366;BME280;4220;42.502;24.188;2022-09-09T04:57:41;95578.03;;;16.00;100.00
8366;BME280;4220;42.502;24.188;2022-09-09T05:00:11;95567.81;;;16.14;100.00
8366;BME280;4220;42.502;24.188;2022-09-09T05:02:38;95562.22;;;16.15;100.00
8366;BME280;4220;42.502;24.188;2022-09-09T05:05:06;95496.56;;;15.91;100.00
8366;BME280;4220;42.502;24.188;2022-09-09T05:07:33;95569.56;;;16.42;100.00
8366;BME280;4220;42.502;24.188;2022-09-09T05:10:00;95575.16;;;16.57;100.00
8366;BME280;4220;42.502;24.188;2022-09-09T05:12:28;95558.13;;;16.63;100.00
8366;BME280;4220;42.502;24.188;2022-09-09T05:14:55;95566.38;;;16.78;100.00
8366;BME280;4220;42.502;24.188;2022-09-09T05:17:23;95507.13;;;16.53;100.00
8366;BME280;4220;42.502;24.188;2022-09-09T05:19:50;95563.88;;;16.93;100.00
8366;BME280;4220;42.502;24.188;2022-09-09T05:22:18;95560.69;;;16.96;100.00
8366;BME280;4220;42.502;24.188;2022-09-09T05:24:46;95562.44;;;17.07;100.00
8366;BME280;4220;42.502;24.188;2022-09-09T05:27:16;95559.25;;;17.10;99.45
8366;BME280;4220;42.502;24.188;2022-09-09T05:29:43;95546.44;;;17.12;99.36
8366;BME280;4220;42.502;24.188;2022-09-09T05:32:10;95535.00;;;17.22;99.28
8366;BME280;4220;42.502;24.188;2022-09-09T05:34:38;95519.47;;;17.24;99.49
8366;BME280;4220;42.502;24.188;2022-09-09T05:37:05;95515.56;;;17.10;100.00
8366;BME280;4220;42.502;24.188;2022-09-09T05:39:33;95525.09;;;17.22;100.00
8366;BME280;4220;42.502;24.188;2022-09-09T05:42:01;95523.38;;;17.38;100.00
8366;BME280;4220;42.502;24.188;2022-09-09T05:44:30;95535.22;;;17.42;100.00
8366;BME280;4220;42.502;24.188;2022-09-09T05:46:57;95544.53;;;17.34;99.64
8366;BME280;4220;42.502;24.188;2022-09-09T05:49:24;95543.91;;;17.27;100.00
8366;BME280;4220;42.502;24.188;2022-09-09T05:51:52;95538.44;;;17.17;100.00
8366;BME280;4220;42.502;24.188;2022-09-09T05:54:19;95531.84;;;17.25;99.72
8366;BME280;4220;42.502;24.188;2022-09-09T05:56:46;95546.13;;;17.35;99.77
8366;BME280;4220;42.502;24.188;2022-09-09T05:59:15;95543.28;;;17.42;99.39
8366;BME280;4220;42.502;24.188;2022-09-09T06:01:41;95493.94;;;17.16;99.01
8366;BME280;4220;42.502;24.188;2022-09-09T06:04:10;95537.44;;;17.50;99.14
8366;BME280;4220;42.502;24.188;2022-09-09T06:06:38;95534.66;;;17.61;98.25
8366;BME280;4220;42.502;24.188;2022-09-09T06:09:07;95536.47;;;17.88;96.84
8366;BME280;4220;42.502;24.188;2022-09-09T06:11:37;95530.75;;;18.11;95.29
8366;BME280;4220;42.502;24.188;2022-09-09T06:14:05;95535.72;;;18.29;94.23
8366;BME280;4220;42.502;24.188;2022-09-09T06:16:33;95532.13;;;18.50;92.58
8366;BME280;4220;42.502;24.188;2022-09-09T06:19:01;95546.75;;;18.69;90.97
8366;BME280;4220;42.502;24.188;2022-09-09T06:21:30;95543.84;;;18.81;90.08
8366;BME280;4220;42.502;24.188;2022-09-09T06:23:58;95550.63;;;18.93;88.87
8366;BME280;4220;42.502;24.188;2022-09-09T06:26:28;95543.16;;;19.06;88.36
8366;BME280;4220;42.502;24.188;2022-09-09T06:28:56;95541.06;;;19.18;87.81
8366;BME280;4220;42.502;24.188;2022-09-09T06:31:25;95547.59;;;19.37;86.38
8366;BME280;4220;42.502;24.188;2022-09-09T06:33:54;95546.00;;;19.56;85.59
8366;BME280;4220;42.502;24.188;2022-09-09T06:36:22;95545.50;;;19.69;83.51
8366;BME280;4220;42.502;24.188;2022-09-09T06:38:49;95532.88;;;19.80;83.05
8366;BME280;4220;42.502;24.188;2022-09-09T06:41:17;95550.94;;;19.99;82.04
8366;BME280;4220;42.502;24.188;2022-09-09T06:43:46;95556.31;;;20.04;82.18
8366;BME280;4220;42.502;24.188;2022-09-09T06:46:15;95513.50;;;19.83;82.23
8366;BME280;4220;42.502;24.188;2022-09-09T06:48:43;95540.94;;;20.20;81.85
8366;BME280;4220;42.502;24.188;2022-09-09T06:51:12;95540.97;;;20.25;81.56
8366;BME280;4220;42.502;24.188;2022-09-09T06:53:40;95547.19;;;20.36;81.83
8366;BME280;4220;42.502;24.188;2022-09-09T06:56:19;95544.19;;;20.47;80.20
8366;BME280;4220;42.502;24.188;2022-09-09T06:58:49;95542.81;;;20.65;78.36
8366;BME280;4220;42.502;24.188;2022-09-09T07:01:18;95543.34;;;20.72;78.75
8366;BME280;4220;42.502;24.188;2022-09-09T07:03:47;95515.34;;;20.58;78.33
8366;BME280;4220;42.502;24.188;2022-09-09T07:06:17;95542.25;;;20.73;78.89
8366;BME280;4220;42.502;24.188;2022-09-09T07:08:48;95517.50;;;20.66;79.32
8366;BME280;4220;42.502;24.188;2022-09-09T07:11:16;95560.50;;;21.06;78.27
8366;BME280;4220;42.502;24.188;2022-09-09T07:13:42;95555.09;;;21.16;76.84
8366;BME280;4220;42.502;24.188;2022-09-09T07:16:13;95553.94;;;21.32;75.89
8366;BME280;4220;42.502;24.188;2022-09-09T07:18:40;95544.31;;;21.01;76.78
8366;BME280;4220;42.502;24.188;2022-09-09T07:21:09;95507.69;;;21.05;76.46
8366;BME280;4220;42.502;24.188;2022-09-09T07:23:37;95537.44;;;21.39;75.83
8366;BME280;4220;42.502;24.188;2022-09-09T07:26:08;95530.13;;;21.49;75.23
8366;BME280;4220;42.502;24.188;2022-09-09T07:28:35;95533.00;;;21.63;75.05
8366;BME280;4220;42.502;24.188;2022-09-09T07:31:02;95549.06;;;21.83;74.86
8366;BME280;4220;42.502;24.188;2022-09-09T07:33:32;95549.09;;;21.78;75.20
8366;BME280;4220;42.502;24.188;2022-09-09T07:36:05;95557.19;;;21.78;75.27
8366;BME280;4220;42.502;24.188;2022-09-09T07:38:33;95563.88;;;21.96;74.42
8366;BME280;4220;42.502;24.188;2022-09-09T07:41:05;95558.34;;;22.11;73.70
8366;BME280;4220;42.502;24.188;2022-09-09T07:43:32;95551.25;;;22.20;73.29
8366;BME280;4220;42.502;24.188;2022-09-09T07:45:59;95554.09;;;22.34;72.97
8366;BME280;4220;42.502;24.188;2022-09-09T07:48:28;95556.31;;;22.60;72.07
8366;BME280;4220;42.502;24.188;2022-09-09T07:51:05;95550.06;;;22.65;71.63
8366;BME280;4220;42.502;24.188;2022-09-09T07:53:32;95513.19;;;22.45;71.16
8366;BME280;4220;42.502;24.188;2022-09-09T07:56:03;95547.06;;;22.66;72.01
8366;BME280;4220;42.502;24.188;2022-09-09T07:58:30;95560.59;;;22.66;72.86
8366;BME280;4220;42.502;24.188;2022-09-09T08:00:57;95549.66;;;22.76;72.63
8366;BME280;4220;42.502;24.188;2022-09-09T08:03:24;95539.88;;;22.81;72.99
8366;BME280;4220;42.502;24.188;2022-09-09T08:05:51;95541.09;;;22.93;72.72
8366;BME280;4220;42.502;24.188;2022-09-09T08:08:19;95548.22;;;23.08;72.30
8366;BME280;4220;42.502;24.188;2022-09-09T08:10:46;95547.09;;;23.14;72.08
8366;BME280;4220;42.502;24.188;2022-09-09T08:13:12;95550.63;;;23.33;71.77
8366;BME280;4220;42.502;24.188;2022-09-09T08:15:39;95541.63;;;23.42;71.03
8366;BME280;4220;42.502;24.188;2022-09-09T08:18:07;95540.16;;;23.50;71.19
8366;BME280;4220;42.502;24.188;2022-09-09T08:20:36;95537.53;;;23.45;72.05
8366;BME280;4220;42.502;24.188;2022-09-09T08:23:03;95544.56;;;23.46;72.68
8366;BME280;4220;42.502;24.188;2022-09-09T08:25:31;95541.47;;;23.53;72.17
8366;BME280;4220;42.502;24.188;2022-09-09T08:28:00;95539.72;;;23.62;72.09
8366;BME280;4220;42.502;24.188;2022-09-09T08:30:27;95538.19;;;23.74;71.12
8366;BME280;4220;42.502;24.188;2022-09-09T08:32:53;95528.84;;;23.85;70.40
8366;BME280;4220;42.502;24.188;2022-09-09T08:35:20;95528.97;;;23.94;69.08
8366;BME280;4220;42.502;24.188;2022-09-09T08:37:47;95532.59;;;24.03;68.95
8366;BME280;4220;42.502;24.188;2022-09-09T08:40:21;95512.00;;;24.07;69.09
8366;BME280;4220;42.502;24.188;2022-09-09T08:42:52;95522.88;;;24.21;69.59
8366;BME280;4220;42.502;24.188;2022-09-09T08:45:29;95523.91;;;24.25;69.33
8366;BME280;4220;42.502;24.188;2022-09-09T08:48:09;95522.94;;;24.16;69.26
8366;BME280;4220;42.502;24.188;2022-09-09T08:50:39;95513.84;;;24.25;69.24
8366;BME280;4220;42.502;24.188;2022-09-09T08:53:11;95525.16;;;24.46;69.67
8366;BME280;4220;42.502;24.188;2022-09-09T08:55:45;95498.47;;;24.53;68.91
8366;BME280;4220;42.502;24.188;2022-09-09T08:58:16;95527.63;;;24.75;68.92
8366;BME280;4220;42.502;24.188;2022-09-09T09:00:55;95525.66;;;24.80;68.44
8366;BME280;4220;42.502;24.188;2022-09-09T09:03:31;95526.25;;;24.77;68.82
8366;BME280;4220;42.502;24.188;2022-09-09T09:06:06;95519.19;;;24.76;68.36
8366;BME280;4220;42.502;24.188;2022-09-09T09:08:40;95518.41;;;24.89;67.79
8366;BME280;4220;42.502;24.188;2022-09-09T09:11:09;95511.91;;;24.90;67.94
8366;BME280;4220;42.502;24.188;2022-09-09T09:13:43;95517.00;;;24.92;67.66
8366;BME280;4220;42.502;24.188;2022-09-09T09:16:19;95523.06;;;25.02;67.25
8366;BME280;4220;42.502;24.188;2022-09-09T09:18:48;95516.81;;;25.15;66.69
8366;BME280;4220;42.502;24.188;2022-09-09T09:21:19;95510.16;;;25.21;66.24
8366;BME280;4220;42.502;24.188;2022-09-09T09:23:55;95505.75;;;25.25;66.76
8366;BME280;4220;42.502;24.188;2022-09-09T09:26:23;95493.06;;;25.48;66.15
8366;BME280;4220;42.502;24.188;2022-09-09T09:28:55;95499.34;;;25.71;64.89
8366;BME280;4220;42.502;24.188;2022-09-09T09:31:22;95479.41;;;25.97;63.83
8366;BME280;4220;42.502;24.188;2022-09-09T09:33:53;95447.00;;;25.79;63.12
8366;BME280;4220;42.502;24.188;2022-09-09T09:36:20;95484.84;;;26.11;63.02
8366;BME280;4220;42.502;24.188;2022-09-09T09:38:55;95478.03;;;26.22;62.50
8366;BME280;4220;42.502;24.188;2022-09-09T09:41:33;95494.69;;;26.07;62.14
8366;BME280;4220;42.502;24.188;2022-09-09T09:44:02;95492.72;;;25.99;62.61
8366;BME280;4220;42.502;24.188;2022-09-09T09:46:30;95458.00;;;25.96;62.41
8366;BME280;4220;42.502;24.188;2022-09-09T09:48:57;95492.66;;;26.35;61.60
8366;BME280;4220;42.502;24.188;2022-09-09T09:51:25;95494.22;;;26.27;61.58
8366;BME280;4220;42.502;24.188;2022-09-09T09:53:53;95496.53;;;26.34;61.00
8366;BME280;4220;42.502;24.188;2022-09-09T09:56:27;95494.94;;;26.41;60.70
8366;BME280;4220;42.502;24.188;2022-09-09T09:58:55;95498.03;;;26.48;60.11
8366;BME280;4220;42.502;24.188;2022-09-09T10:01:25;95486.94;;;26.36;60.29
8366;BME280;4220;42.502;24.188;2022-09-09T10:03:54;95491.34;;;26.24;60.53
8366;BME280;4220;42.502;24.188;2022-09-09T10:06:30;95490.78;;;26.44;59.51
8366;BME280;4220;42.502;24.188;2022-09-09T10:08:58;95487.75;;;26.68;59.85
8366;BME280;4220;42.502;24.188;2022-09-09T10:11:38;95490.38;;;26.81;59.13
8366;BME280;4220;42.502;24.188;2022-09-09T10:14:18;95487.09;;;27.01;58.33
8366;BME280;4220;42.502;24.188;2022-09-09T10:16:57;95485.91;;;27.24;57.74
8366;BME280;4220;42.502;24.188;2022-09-09T10:19:30;95482.44;;;27.41;56.90
8366;BME280;4220;42.502;24.188;2022-09-09T10:22:20;95467.84;;;27.46;56.18
8366;BME280;4220;42.502;24.188;2022-09-09T10:25:10;95471.56;;;27.67;55.15
8366;BME280;4220;42.502;24.188;2022-09-09T10:27:51;95477.19;;;27.87;55.51
8366;BME280;4220;42.502;24.188;2022-09-09T10:30:24;95481.03;;;27.95;54.76
8366;BME280;4220;42.502;24.188;2022-09-09T10:33:04;95474.31;;;27.75;55.07
8366;BME280;4220;42.502;24.188;2022-09-09T10:35:39;95485.72;;;28.03;54.69
8366;BME280;4220;42.502;24.188;2022-09-09T10:38:16;95482.47;;;28.35;53.91
8366;BME280;4220;42.502;24.188;2022-09-09T10:41:00;95451.78;;;28.47;52.26
8366;BME280;4220;42.502;24.188;2022-09-09T10:43:44;95471.28;;;28.83;51.67
8366;BME280;4220;42.502;24.188;2022-09-09T10:46:18;95480.63;;;29.20;50.73
8366;BME280;4220;42.502;24.188;2022-09-09T10:49:06;95470.75;;;29.57;50.40
8366;BME280;4220;42.502;24.188;2022-09-09T10:51:42;95471.09;;;29.76;49.72
8366;BME280;4220;42.502;24.188;2022-09-09T10:54:29;95475.63;;;30.13;48.57
8366;BME280;4220;42.502;24.188;2022-09-09T10:57:03;95473.03;;;30.37;48.42
8366;BME280;4220;42.502;24.188;2022-09-09T10:59:33;95466.56;;;30.21;48.81
8366;BME280;4220;42.502;24.188;2022-09-09T11:02:10;95460.06;;;30.26;48.73
8366;BME280;4220;42.502;24.188;2022-09-09T11:04:45;95449.47;;;30.57;47.57
8366;BME280;4220;42.502;24.188;2022-09-09T11:07:22;95461.47;;;30.77;47.41
8366;BME280;4220;42.502;24.188;2022-09-09T11:09:56;95462.50;;;30.84;46.96
8366;BME280;4220;42.502;24.188;2022-09-09T11:12:27;95463.94;;;30.90;46.55
8366;BME280;4220;42.502;24.188;2022-09-09T11:14:59;95456.59;;;30.82;46.30
8366;BME280;4220;42.502;24.188;2022-09-09T11:17:33;95458.50;;;30.70;47.21
8366;BME280;4220;42.502;24.188;2022-09-09T11:20:05;95465.91;;;30.04;48.55
8366;BME280;4220;42.502;24.188;2022-09-09T11:22:35;95466.06;;;29.87;49.51
8366;BME280;4220;42.502;24.188;2022-09-09T11:25:08;95460.84;;;29.73;49.56
8366;BME280;4220;42.502;24.188;2022-09-09T11:27:50;95451.63;;;29.36;50.12
8366;BME280;4220;42.502;24.188;2022-09-09T11:30:21;95450.94;;;28.72;51.75
8366;BME280;4220;42.502;24.188;2022-09-09T11:33:11;95438.97;;;28.94;51.82
8366;BME280;4220;42.502;24.188;2022-09-09T11:36:00;95422.44;;;29.20;51.02
8366;BME280;4220;42.502;24.188;2022-09-09T11:38:36;95435.13;;;29.15;51.06
8366;BME280;4220;42.502;24.188;2022-09-09T11:41:08;95434.59;;;29.01;51.72
8366;BME280;4220;42.502;24.188;2022-09-09T11:43:40;95440.03;;;29.01;51.36
8366;BME280;4220;42.502;24.188;2022-09-09T11:46:08;95437.13;;;29.06;51.13
8366;BME280;4220;42.502;24.188;2022-09-09T11:48:37;95433.53;;;29.14;51.06
8366;BME280;4220;42.502;24.188;2022-09-09T11:51:11;95438.06;;;29.40;50.83
8366;BME280;4220;42.502;24.188;2022-09-09T11:53:50;95429.34;;;29.46;50.21
8366;BME280;4220;42.502;24.188;2022-09-09T11:56:28;95425.22;;;29.40;50.65
8366;BME280;4220;42.502;24.188;2022-09-09T11:59:06;95437.03;;;29.53;50.31
8366;BME280;4220;42.502;24.188;2022-09-09T12:01:49;95439.47;;;29.66;49.93
8366;BME280;4220;42.502;24.188;2022-09-09T12:04:35;95430.34;;;29.42;50.27
8366;BME280;4220;42.502;24.188;2022-09-09T12:07:25;95443.25;;;29.03;51.25
8366;BME280;4220;42.502;24.188;2022-09-09T12:09:58;95423.25;;;28.82;51.38
8366;BME280;4220;42.502;24.188;2022-09-09T12:12:32;95425.13;;;28.52;52.49
8366;BME280;4220;42.502;24.188;2022-09-09T12:15:18;95421.59;;;28.52;53.08
8366;BME280;4220;42.502;24.188;2022-09-09T12:17:47;95405.19;;;28.69;52.85
8366;BME280;4220;42.502;24.188;2022-09-09T12:20:18;95412.72;;;29.01;51.57
8366;BME280;4220;42.502;24.188;2022-09-09T12:23:19;95403.88;;;29.75;50.04
8366;BME280;4220;42.502;24.188;2022-09-09T12:25:58;95408.72;;;30.44;48.56
8366;BME280;4220;42.502;24.188;2022-09-09T12:28:39;95418.03;;;30.87;47.33
8366;BME280;4220;42.502;24.188;2022-09-09T12:31:10;95416.78;;;30.97;47.41
8366;BME280;4220;42.502;24.188;2022-09-09T12:33:43;95414.47;;;30.63;47.03
8366;BME280;4220;42.502;24.188;2022-09-09T12:36:14;95407.34;;;30.50;46.80
8366;BME280;4220;42.502;24.188;2022-09-09T12:38:43;95408.38;;;30.45;47.89
8366;BME280;4220;42.502;24.188;2022-09-09T12:41:19;95412.06;;;30.28;47.96
8366;BME280;4220;42.502;24.188;2022-09-09T12:43:46;95402.59;;;29.93;48.49
8366;BME280;4220;42.502;24.188;2022-09-09T12:46:21;95399.38;;;29.79;48.29
8366;BME280;4220;42.502;24.188;2022-09-09T12:48:52;95395.63;;;29.63;48.86
8366;BME280;4220;42.502;24.188;2022-09-09T12:51:27;95389.81;;;29.44;49.48
8366;BME280;4220;42.502;24.188;2022-09-09T12:53:56;95391.53;;;29.28;49.84
8366;BME280;4220;42.502;24.188;2022-09-09T12:56:26;95397.44;;;29.09;50.19
8366;BME280;4220;42.502;24.188;2022-09-09T12:58:55;95378.06;;;28.93;51.38
8366;BME280;4220;42.502;24.188;2022-09-09T13:01:24;95388.72;;;28.86;51.13
8366;BME280;4220;42.502;24.188;2022-09-09T13:03:52;95370.50;;;28.70;51.57
8366;BME280;4220;42.502;24.188;2022-09-09T13:06:21;95372.44;;;28.61;52.09
8366;BME280;4220;42.502;24.188;2022-09-09T13:08:49;95359.19;;;28.42;52.03
8366;BME280;4220;42.502;24.188;2022-09-09T13:11:20;95370.13;;;28.33;52.69
8366;BME280;4220;42.502;24.188;2022-09-09T13:13:52;95367.31;;;28.13;53.46
8366;BME280;4220;42.502;24.188;2022-09-09T13:16:22;95369.59;;;27.94;54.29
8366;BME280;4220;42.502;24.188;2022-09-09T13:18:49;95351.16;;;27.82;54.86
8366;BME280;4220;42.502;24.188;2022-09-09T13:21:17;95352.41;;;27.84;55.23
8366;BME280;4220;42.502;24.188;2022-09-09T13:23:49;95342.31;;;27.85;55.59
8366;BME280;4220;42.502;24.188;2022-09-09T13:26:24;95332.22;;;27.85;55.71
8366;BME280;4220;42.502;24.188;2022-09-09T13:28:51;95316.03;;;27.80;55.31